sensor_id;sensor_type;location;lat;lon;timestamp;P1;durP1;ratioP1;P2;durP2;ratioP2
3369;SDS011;42042;51.948;7.628;2022-08-06T00:02:12;2.90;;;2.27;;
3369;SDS011;42042;51.948;7.628;2022-08-06T00:04:39;2.60;;;2.40;;
3369;SDS011;42042;51.948;7.628;2022-08-06T00:07:06;6.03;;;2.37;;
3369;SDS011;42042;51.948;7.628;2022-08-06T00:09:34;2.43;;;2.17;;
3369;SDS011;42042;51.948;7.628;2022-08-06T00:12:01;2.97;;;2.23;;
3369;SDS011;42042;51.948;7.628;2022-08-06T00:14:29;3.73;;;2.47;;
3369;SDS011;42042;51.948;7.628;2022-08-06T00:16:58;2.47;;;2.27;;
3369;SDS011;42042;51.948;7.628;2022-08-06T00:19:26;3.77;;;2.17;;
3369;SDS011;42042;51.948;7.628;2022-08-06T00:21:53;4.50;;;2.40;;
3369;SDS011;42042;51.948;7.628;2022-08-06T00:24:21;4.80;;;2.47;;
3369;SDS011;42042;51.948;7.628;2022-08-06T00:26:48;4.37;;;2.63;;
3369;SDS011;42042;51.948;7.628;2022-08-06T00:29:15;5.00;;;2.77;;
3369;SDS011;42042;51.948;7.628;2022-08-06T00:31:42;5.80;;;2.27;;
3369;SDS011;42042;51.948;7.628;2022-08-06T00:34:11;3.57;;;2.30;;
3369;SDS011;42042;51.948;7.628;2022-08-06T00:36:38;3.10;;;2.30;;
3369;SDS011;42042;51.948;7.628;2022-08-06T00:39:06;2.70;;;2.30;;
3369;SDS011;42042;51.948;7.628;2022-08-06T00:41:33;5.03;;;2.43;;
3369;SDS011;42042;51.948;7.628;2022-08-06T00:44:01;2.63;;;2.20;;
3369;SDS011;42042;51.948;7.628;2022-08-06T00:46:28;3.50;;;2.57;;
3369;SDS011;42042;51.948;7.628;2022-08-06T00:48:56;4.50;;;2.87;;
3369;SDS011;42042;51.948;7.628;2022-08-06T00:51:24;5.23;;;2.47;;
3369;SDS011;42042;51.948;7.628;2022-08-06T00:53:52;3.30;;;2.40;;
3369;SDS011;42042;51.948;7.628;2022-08-06T00:56:19;3.17;;;2.63;;
3369;SDS011;42042;51.948;7.628;2022-08-06T00:58:46;7.30;;;3.60;;
3369;SDS011;42042;51.948;7.628;2022-08-06T01:01:14;4.53;;;2.73;;
3369;SDS011;42042;51.948;7.628;2022-08-06T01:03:41;3.63;;;2.70;;
3369;SDS011;42042;51.948;7.628;2022-08-06T01:06:08;4.93;;;2.93;;
3369;SDS011;42042;51.948;7.628;2022-08-06T01:08:37;3.43;;;2.80;;
3369;SDS011;42042;51.948;7.628;2022-08-06T01:11:04;6.93;;;3.30;;
3369;SDS011;42042;51.948;7.628;2022-08-06T01:13:31;4.10;;;3.20;;
3369;SDS011;42042;51.948;7.628;2022-08-06T01:16:03;3.33;;;3.07;;
3369;SDS011;42042;51.948;7.628;2022-08-06T01:18:35;3.10;;;2.83;;
3369;SDS011;42042;51.948;7.628;2022-08-06T01:21:07;3.00;;;2.80;;
3369;SDS011;42042;51.948;7.628;2022-08-06T01:23:45;6.10;;;2.93;;
3369;SDS011;42042;51.948;7.628;2022-08-06T01:26:26;7.20;;;2.93;;
3369;SDS011;42042;51.948;7.628;2022-08-06T01:28:56;3.60;;;3.10;;
3369;SDS011;42042;51.948;7.628;2022-08-06T01:31:26;3.37;;;3.07;;
3369;SDS011;42042;51.948;7.628;2022-08-06T01:33:56;3.57;;;3.27;;
3369;SDS011;42042;51.948;7.628;2022-08-06T01:36:27;3.70;;;3.13;;
3369;SDS011;42042;51.948;7.628;2022-08-06T01:38:57;4.00;;;3.30;;
3369;SDS011;42042;51.948;7.628;2022-08-06T01:41:25;3.17;;;2.83;;
3369;SDS011;42042;51.948;7.628;2022-08-06T01:44:07;3.90;;;3.20;;
3369;SDS011;42042;51.948;7.628;2022-08-06T01:46:35;8.10;;;3.27;;
3369;SDS011;42042;51.948;7.628;2022-08-06T01:49:03;4.47;;;3.60;;
3369;SDS011;42042;51.948;7.628;2022-08-06T01:51:31;4.90;;;3.27;;
3369;SDS011;42042;51.948;7.628;2022-08-06T01:53:58;4.47;;;3.80;;
3369;SDS011;42042;51.948;7.628;2022-08-06T01:56:26;5.50;;;3.17;;
3369;SDS011;42042;51.948;7.628;2022-08-06T01:58:54;5.70;;;3.80;;
3369;SDS011;42042;51.948;7.628;2022-08-06T02:01:24;7.13;;;3.90;;
3369;SDS011;42042;51.948;7.628;2022-08-06T02:03:53;5.43;;;3.37;;
3369;SDS011;42042;51.948;7.628;2022-08-06T02:06:22;7.30;;;3.80;;
3369;SDS011;42042;51.948;7.628;2022-08-06T02:08:51;4.03;;;3.27;;
3369;SDS011;42042;51.948;7.628;2022-08-06T02:11:19;5.80;;;3.90;;
3369;SDS011;42042;51.948;7.628;2022-08-06T02:13:46;5.73;;;3.73;;
3369;SDS011;42042;51.948;7.628;2022-08-06T02:16:15;3.43;;;3.23;;
3369;SDS011;42042;51.948;7.628;2022-08-06T02:18:44;3.83;;;3.17;;
3369;SDS011;42042;51.948;7.628;2022-08-06T02:21:14;8.83;;;3.30;;
3369;SDS011;42042;51.948;7.628;2022-08-06T02:23:42;4.83;;;3.70;;
3369;SDS011;42042;51.948;7.628;2022-08-06T02:26:10;8.97;;;3.47;;
3369;SDS011;42042;51.948;7.628;2022-08-06T02:28:38;5.20;;;3.50;;
3369;SDS011;42042;51.948;7.628;2022-08-06T02:31:06;4.13;;;3.60;;
3369;SDS011;42042;51.948;7.628;2022-08-06T02:33:33;4.57;;;3.47;;
3369;SDS011;42042;51.948;7.628;2022-08-06T02:36:03;5.97;;;3.27;;
3369;SDS011;42042;51.948;7.628;2022-08-06T02:38:34;4.00;;;3.70;;
3369;SDS011;42042;51.948;7.628;2022-08-06T02:41:04;6.23;;;3.80;;
3369;SDS011;42042;51.948;7.628;2022-08-06T02:43:35;8.37;;;3.57;;
3369;SDS011;42042;51.948;7.628;2022-08-06T02:46:06;3.80;;;3.40;;
3369;SDS011;42042;51.948;7.628;2022-08-06T02:48:39;4.30;;;3.67;;
3369;SDS011;42042;51.948;7.628;2022-08-06T02:51:10;6.30;;;3.20;;
3369;SDS011;42042;51.948;7.628;2022-08-06T02:53:42;8.00;;;3.83;;
3369;SDS011;42042;51.948;7.628;2022-08-06T02:56:11;7.10;;;3.27;;
3369;SDS011;42042;51.948;7.628;2022-08-06T02:58:39;4.60;;;3.43;;
3369;SDS011;42042;51.948;7.628;2022-08-06T03:01:08;3.77;;;3.03;;
3369;SDS011;42042;51.948;7.628;2022-08-06T03:03:35;5.93;;;3.50;;
3369;SDS011;42042;51.948;7.628;2022-08-06T03:06:04;6.70;;;3.50;;
3369;SDS011;42042;51.948;7.628;2022-08-06T03:08:33;4.23;;;3.83;;
3369;SDS011;42042;51.948;7.628;2022-08-06T03:11:02;9.33;;;3.73;;
3369;SDS011;42042;51.948;7.628;2022-08-06T03:13:30;5.87;;;3.17;;
3369;SDS011;42042;51.948;7.628;2022-08-06T03:15:58;4.43;;;3.63;;
3369;SDS011;42042;51.948;7.628;2022-08-06T03:18:27;4.40;;;4.00;;
3369;SDS011;42042;51.948;7.628;2022-08-06T03:20:54;3.90;;;3.20;;
3369;SDS011;42042;51.948;7.628;2022-08-06T03:23:22;8.70;;;4.13;;
3369;SDS011;42042;51.948;7.628;2022-08-06T03:25:51;7.57;;;4.50;;
3369;SDS011;42042;51.948;7.628;2022-08-06T03:28:18;4.03;;;3.20;;
3369;SDS011;42042;51.948;7.628;2022-08-06T03:30:46;6.30;;;3.30;;
3369;SDS011;42042;51.948;7.628;2022-08-06T03:33:14;5.23;;;3.53;;
3369;SDS011;42042;51.948;7.628;2022-08-06T03:35:42;5.70;;;3.60;;
3369;SDS011;42042;51.948;7.628;2022-08-06T03:38:10;4.73;;;3.60;;
3369;SDS011;42042;51.948;7.628;2022-08-06T03:40:38;5.00;;;3.40;;
3369;SDS011;42042;51.948;7.628;2022-08-06T03:43:07;4.33;;;3.60;;
3369;SDS011;42042;51.948;7.628;2022-08-06T03:45:36;8.63;;;3.80;;
3369;SDS011;42042;51.948;7.628;2022-08-06T03:48:04;7.37;;;4.30;;
3369;SDS011;42042;51.948;7.628;2022-08-06T03:50:34;4.60;;;4.20;;
3369;SDS011;42042;51.948;7.628;2022-08-06T03:53:03;5.23;;;4.20;;
3369;SDS011;42042;51.948;7.628;2022-08-06T03:55:31;4.30;;;3.50;;
3369;SDS011;42042;51.948;7.628;2022-08-06T03:58:00;4.80;;;4.30;;
3369;SDS011;42042;51.948;7.628;2022-08-06T04:00:30;4.53;;;4.13;;
3369;SDS011;42042;51.948;7.628;2022-08-06T04:02:59;8.60;;;4.03;;
3369;SDS011;42042;51.948;7.628;2022-08-06T04:05:28;6.63;;;4.37;;
3369;SDS011;42042;51.948;7.628;2022-08-06T04:07:56;6.17;;;4.27;;
3369;SDS011;42042;51.948;7.628;2022-08-06T04:10:24;5.00;;;4.03;;
3369;SDS011;42042;51.948;7.628;2022-08-06T04:12:52;4.20;;;3.90;;
3369;SDS011;42042;51.948;7.628;2022-08-06T04:15:19;5.57;;;4.80;;
3369;SDS011;42042;51.948;7.628;2022-08-06T04:17:48;9.80;;;4.90;;
3369;SDS011;42042;51.948;7.628;2022-08-06T04:20:18;4.60;;;4.20;;
3369;SDS011;42042;51.948;7.628;2022-08-06T04:22:47;8.53;;;4.40;;
3369;SDS011;42042;51.948;7.628;2022-08-06T04:25:14;4.95;;;4.55;;
3369;SDS011;42042;51.948;7.628;2022-08-06T04:27:41;4.97;;;4.03;;
3369;SDS011;42042;51.948;7.628;2022-08-06T04:30:10;4.60;;;4.20;;
3369;SDS011;42042;51.948;7.628;2022-08-06T04:32:37;7.33;;;4.63;;
3369;SDS011;42042;51.948;7.628;2022-08-06T04:35:07;4.13;;;3.80;;
3369;SDS011;42042;51.948;7.628;2022-08-06T04:37:35;4.13;;;3.83;;
3369;SDS011;42042;51.948;7.628;2022-08-06T04:40:03;5.10;;;4.60;;
3369;SDS011;42042;51.948;7.628;2022-08-06T04:42:32;5.27;;;4.30;;
3369;SDS011;42042;51.948;7.628;2022-08-06T04:44:59;6.07;;;4.37;;
3369;SDS011;42042;51.948;7.628;2022-08-06T04:47:28;5.80;;;4.70;;
3369;SDS011;42042;51.948;7.628;2022-08-06T04:49:56;8.20;;;4.40;;
3369;SDS011;42042;51.948;7.628;2022-08-06T04:52:25;6.17;;;4.80;;
3369;SDS011;42042;51.948;7.628;2022-08-06T04:54:53;7.50;;;4.23;;
3369;SDS011;42042;51.948;7.628;2022-08-06T04:57:20;11.83;;;4.93;;
3369;SDS011;42042;51.948;7.628;2022-08-06T04:59:48;4.70;;;4.40;;
3369;SDS011;42042;51.948;7.628;2022-08-06T05:02:15;4.50;;;3.73;;
3369;SDS011;42042;51.948;7.628;2022-08-06T05:04:42;5.30;;;4.40;;
3369;SDS011;42042;51.948;7.628;2022-08-06T05:07:12;6.57;;;4.60;;
3369;SDS011;42042;51.948;7.628;2022-08-06T05:09:41;10.63;;;4.20;;
3369;SDS011;42042;51.948;7.628;2022-08-06T05:12:13;4.40;;;4.10;;
3369;SDS011;42042;51.948;7.628;2022-08-06T05:14:43;5.43;;;3.87;;
3369;SDS011;42042;51.948;7.628;2022-08-06T05:17:13;3.90;;;3.60;;
3369;SDS011;42042;51.948;7.628;2022-08-06T05:19:42;3.80;;;3.57;;
3369;SDS011;42042;51.948;7.628;2022-08-06T05:22:10;5.83;;;3.50;;
3369;SDS011;42042;51.948;7.628;2022-08-06T05:24:41;5.47;;;3.60;;
3369;SDS011;42042;51.948;7.628;2022-08-06T05:27:09;4.53;;;3.80;;
3369;SDS011;42042;51.948;7.628;2022-08-06T05:29:36;5.87;;;3.60;;
3369;SDS011;42042;51.948;7.628;2022-08-06T05:32:04;3.80;;;3.40;;
3369;SDS011;42042;51.948;7.628;2022-08-06T05:34:31;5.10;;;3.50;;
3369;SDS011;42042;51.948;7.628;2022-08-06T05:36:59;4.30;;;4.00;;
3369;SDS011;42042;51.948;7.628;2022-08-06T05:39:26;9.37;;;3.70;;
3369;SDS011;42042;51.948;7.628;2022-08-06T05:41:55;5.77;;;3.10;;
3369;SDS011;42042;51.948;7.628;2022-08-06T05:44:22;4.43;;;4.03;;
3369;SDS011;42042;51.948;7.628;2022-08-06T05:46:51;5.07;;;3.37;;
3369;SDS011;42042;51.948;7.628;2022-08-06T05:49:20;4.17;;;3.20;;
3369;SDS011;42042;51.948;7.628;2022-08-06T05:51:50;4.37;;;3.03;;
3369;SDS011;42042;51.948;7.628;2022-08-06T05:54:21;3.23;;;2.63;;
3369;SDS011;42042;51.948;7.628;2022-08-06T05:56:49;4.97;;;3.40;;
3369;SDS011;42042;51.948;7.628;2022-08-06T05:59:20;3.40;;;3.20;;
3369;SDS011;42042;51.948;7.628;2022-08-06T06:01:47;3.37;;;3.03;;
3369;SDS011;42042;51.948;7.628;2022-08-06T06:04:15;3.27;;;2.97;;
3369;SDS011;42042;51.948;7.628;2022-08-06T06:06:43;4.00;;;2.77;;
3369;SDS011;42042;51.948;7.628;2022-08-06T06:09:10;3.20;;;2.60;;
3369;SDS011;42042;51.948;7.628;2022-08-06T06:11:38;3.53;;;3.13;;
3369;SDS011;42042;51.948;7.628;2022-08-06T06:14:07;4.40;;;3.00;;
3369;SDS011;42042;51.948;7.628;2022-08-06T06:16:44;2.60;;;2.40;;
3369;SDS011;42042;51.948;7.628;2022-08-06T06:19:17;2.47;;;2.20;;
3369;SDS011;42042;51.948;7.628;2022-08-06T06:21:56;3.43;;;2.50;;
3369;SDS011;42042;51.948;7.628;2022-08-06T06:24:28;5.10;;;2.07;;
3369;SDS011;42042;51.948;7.628;2022-08-06T06:26:57;3.30;;;2.40;;
3369;SDS011;42042;51.948;7.628;2022-08-06T06:29:30;8.90;;;2.20;;
3369;SDS011;42042;51.948;7.628;2022-08-06T06:32:01;2.00;;;1.80;;
3369;SDS011;42042;51.948;7.628;2022-08-06T06:34:33;1.70;;;1.60;;
3369;SDS011;42042;51.948;7.628;2022-08-06T06:37:05;2.80;;;1.77;;
3369;SDS011;42042;51.948;7.628;2022-08-06T06:39:36;2.67;;;2.00;;
3369;SDS011;42042;51.948;7.628;2022-08-06T06:42:06;5.37;;;1.70;;
3369;SDS011;42042;51.948;7.628;2022-08-06T06:44:36;4.27;;;2.27;;
3369;SDS011;42042;51.948;7.628;2022-08-06T06:47:07;2.63;;;2.10;;
3369;SDS011;42042;51.948;7.628;2022-08-06T06:49:39;3.70;;;2.13;;
3369;SDS011;42042;51.948;7.628;2022-08-06T06:52:09;9.13;;;2.30;;
3369;SDS011;42042;51.948;7.628;2022-08-06T06:54:39;3.30;;;1.50;;
3369;SDS011;42042;51.948;7.628;2022-08-06T06:57:09;2.10;;;1.70;;
3369;SDS011;42042;51.948;7.628;2022-08-06T06:59:39;2.90;;;1.87;;
3369;SDS011;42042;51.948;7.628;2022-08-06T07:02:12;3.53;;;1.30;;
3369;SDS011;42042;51.948;7.628;2022-08-06T07:04:41;2.60;;;1.47;;
3369;SDS011;42042;51.948;7.628;2022-08-06T07:07:09;2.30;;;1.30;;
3369;SDS011;42042;51.948;7.628;2022-08-06T07:09:36;2.60;;;1.80;;
3369;SDS011;42042;51.948;7.628;2022-08-06T07:12:04;1.43;;;1.30;;
3369;SDS011;42042;51.948;7.628;2022-08-06T07:14:34;4.40;;;2.13;;
3369;SDS011;42042;51.948;7.628;2022-08-06T07:17:02;4.30;;;1.70;;
3369;SDS011;42042;51.948;7.628;2022-08-06T07:19:31;6.67;;;2.50;;
3369;SDS011;42042;51.948;7.628;2022-08-06T07:21:59;1.87;;;1.30;;
3369;SDS011;42042;51.948;7.628;2022-08-06T07:24:26;4.17;;;1.37;;
3369;SDS011;42042;51.948;7.628;2022-08-06T07:26:56;1.30;;;1.13;;
3369;SDS011;42042;51.948;7.628;2022-08-06T07:29:24;1.10;;;1.00;;
3369;SDS011;42042;51.948;7.628;2022-08-06T07:31:52;1.23;;;1.13;;
3369;SDS011;42042;51.948;7.628;2022-08-06T07:34:21;1.20;;;1.20;;
3369;SDS011;42042;51.948;7.628;2022-08-06T07:36:51;1.40;;;1.10;;
3369;SDS011;42042;51.948;7.628;2022-08-06T07:39:21;1.93;;;1.13;;
3369;SDS011;42042;51.948;7.628;2022-08-06T07:41:49;2.50;;;1.30;;
3369;SDS011;42042;51.948;7.628;2022-08-06T07:44:18;1.67;;;1.30;;
3369;SDS011;42042;51.948;7.628;2022-08-06T07:46:47;2.23;;;1.37;;
3369;SDS011;42042;51.948;7.628;2022-08-06T07:49:16;2.43;;;1.27;;
3369;SDS011;42042;51.948;7.628;2022-08-06T07:51:45;1.93;;;1.10;;
3369;SDS011;42042;51.948;7.628;2022-08-06T07:54:14;1.23;;;1.13;;
3369;SDS011;42042;51.948;7.628;2022-08-06T07:56:42;1.40;;;1.23;;
3369;SDS011;42042;51.948;7.628;2022-08-06T07:59:10;4.40;;;1.20;;
3369;SDS011;42042;51.948;7.628;2022-08-06T08:01:38;1.60;;;1.10;;
3369;SDS011;42042;51.948;7.628;2022-08-06T08:04:06;5.43;;;1.30;;
3369;SDS011;42042;51.948;7.628;2022-08-06T08:06:51;4.97;;;1.63;;
3369;SDS011;42042;51.948;7.628;2022-08-06T08:09:21;2.20;;;1.20;;
3369;SDS011;42042;51.948;7.628;2022-08-06T08:11:49;2.03;;;1.10;;
3369;SDS011;42042;51.948;7.628;2022-08-06T08:14:18;3.17;;;1.40;;
3369;SDS011;42042;51.948;7.628;2022-08-06T08:16:45;4.50;;;1.67;;
3369;SDS011;42042;51.948;7.628;2022-08-06T08:19:20;4.17;;;1.63;;
3369;SDS011;42042;51.948;7.628;2022-08-06T08:21:48;2.17;;;1.30;;
3369;SDS011;42042;51.948;7.628;2022-08-06T08:24:15;2.20;;;1.30;;
3369;SDS011;42042;51.948;7.628;2022-08-06T08:26:44;1.10;;;1.00;;
3369;SDS011;42042;51.948;7.628;2022-08-06T08:29:11;1.30;;;1.20;;
3369;SDS011;42042;51.948;7.628;2022-08-06T08:31:38;1.63;;;1.23;;
3369;SDS011;42042;51.948;7.628;2022-08-06T08:34:05;1.47;;;1.20;;
3369;SDS011;42042;51.948;7.628;2022-08-06T08:36:33;3.50;;;1.43;;
3369;SDS011;42042;51.948;7.628;2022-08-06T08:39:00;1.37;;;1.03;;
3369;SDS011;42042;51.948;7.628;2022-08-06T08:41:29;3.40;;;1.20;;
3369;SDS011;42042;51.948;7.628;2022-08-06T08:44:01;2.10;;;1.10;;
3369;SDS011;42042;51.948;7.628;2022-08-06T08:46:30;2.57;;;1.40;;
3369;SDS011;42042;51.948;7.628;2022-08-06T08:49:00;1.40;;;1.10;;
3369;SDS011;42042;51.948;7.628;2022-08-06T08:51:28;1.40;;;1.30;;
3369;SDS011;42042;51.948;7.628;2022-08-06T08:53:57;1.00;;;1.00;;
3369;SDS011;42042;51.948;7.628;2022-08-06T08:56:26;2.10;;;1.20;;
3369;SDS011;42042;51.948;7.628;2022-08-06T08:58:53;1.40;;;1.30;;
3369;SDS011;42042;51.948;7.628;2022-08-06T09:01:22;1.27;;;1.17;;
3369;SDS011;42042;51.948;7.628;2022-08-06T09:03:49;1.23;;;1.13;;
3369;SDS011;42042;51.948;7.628;2022-08-06T09:06:17;1.47;;;1.23;;
3369;SDS011;42042;51.948;7.628;2022-08-06T09:08:45;1.17;;;0.97;;
3369;SDS011;42042;51.948;7.628;2022-08-06T09:11:13;1.20;;;1.10;;
3369;SDS011;42042;51.948;7.628;2022-08-06T09:13:40;2.00;;;1.20;;
3369;SDS011;42042;51.948;7.628;2022-08-06T09:16:08;4.60;;;1.27;;
3369;SDS011;42042;51.948;7.628;2022-08-06T09:18:36;1.43;;;1.33;;
3369;SDS011;42042;51.948;7.628;2022-08-06T09:21:03;2.30;;;1.30;;
3369;SDS011;42042;51.948;7.628;2022-08-06T09:23:31;1.23;;;1.13;;
3369;SDS011;42042;51.948;7.628;2022-08-06T09:25:58;1.40;;;1.30;;
3369;SDS011;42042;51.948;7.628;2022-08-06T09:28:32;1.47;;;1.20;;
3369;SDS011;42042;51.948;7.628;2022-08-06T09:31:01;1.40;;;1.30;;
3369;SDS011;42042;51.948;7.628;2022-08-06T09:33:29;1.00;;;1.00;;
3369;SDS011;42042;51.948;7.628;2022-08-06T09:35:58;1.63;;;1.20;;
3369;SDS011;42042;51.948;7.628;2022-08-06T09:38:26;1.30;;;1.20;;
3369;SDS011;42042;51.948;7.628;2022-08-06T09:41:07;3.63;;;1.20;;
3369;SDS011;42042;51.948;7.628;2022-08-06T09:43:35;1.30;;;1.20;;
3369;SDS011;42042;51.948;7.628;2022-08-06T09:46:02;1.40;;;1.00;;
3369;SDS011;42042;51.948;7.628;2022-08-06T09:48:30;3.63;;;1.20;;
3369;SDS011;42042;51.948;7.628;2022-08-06T09:50:58;1.30;;;1.20;;
3369;SDS011;42042;51.948;7.628;2022-08-06T09:53:26;1.73;;;1.20;;
3369;SDS011;42042;51.948;7.628;2022-08-06T09:55:54;2.00;;;1.30;;
3369;SDS011;42042;51.948;7.628;2022-08-06T09:58:32;1.30;;;1.13;;
3369;SDS011;42042;51.948;7.628;2022-08-06T10:01:13;1.30;;;1.20;;
3369;SDS011;42042;51.948;7.628;2022-08-06T10:03:40;2.40;;;1.40;;
3369;SDS011;42042;51.948;7.628;2022-08-06T10:06:10;2.10;;;1.23;;
3369;SDS011;42042;51.948;7.628;2022-08-06T10:08:37;1.70;;;1.60;;
3369;SDS011;42042;51.948;7.628;2022-08-06T10:11:05;1.70;;;1.17;;
3369;SDS011;42042;51.948;7.628;2022-08-06T10:13:33;1.63;;;1.27;;
3369;SDS011;42042;51.948;7.628;2022-08-06T10:16:01;1.23;;;1.10;;
3369;SDS011;42042;51.948;7.628;2022-08-06T10:18:40;1.40;;;1.10;;
3369;SDS011;42042;51.948;7.628;2022-08-06T10:21:11;2.40;;;1.30;;
3369;SDS011;42042;51.948;7.628;2022-08-06T10:23:40;1.37;;;1.23;;
3369;SDS011;42042;51.948;7.628;2022-08-06T10:26:08;1.10;;;1.00;;
3369;SDS011;42042;51.948;7.628;2022-08-06T10:28:36;3.00;;;1.13;;
3369;SDS011;42042;51.948;7.628;2022-08-06T10:31:04;1.97;;;1.30;;
3369;SDS011;42042;51.948;7.628;2022-08-06T10:33:32;1.40;;;1.30;;
3369;SDS011;42042;51.948;7.628;2022-08-06T10:36:01;1.67;;;1.20;;
3369;SDS011;42042;51.948;7.628;2022-08-06T10:38:33;1.50;;;1.40;;
3369;SDS011;42042;51.948;7.628;2022-08-06T10:41:02;1.30;;;1.20;;
3369;SDS011;42042;51.948;7.628;2022-08-06T10:43:30;1.50;;;1.40;;
3369;SDS011;42042;51.948;7.628;2022-08-06T10:45:57;1.20;;;1.10;;
3369;SDS011;42042;51.948;7.628;2022-08-06T10:48:25;1.37;;;1.10;;
3369;SDS011;42042;51.948;7.628;2022-08-06T10:50:52;3.07;;;1.87;;
3369;SDS011;42042;51.948;7.628;2022-08-06T10:53:19;8.10;;;2.03;;
3369;SDS011;42042;51.948;7.628;2022-08-06T10:55:49;2.50;;;1.10;;
3369;SDS011;42042;51.948;7.628;2022-08-06T10:58:16;3.50;;;1.20;;
3369;SDS011;42042;51.948;7.628;2022-08-06T11:00:43;2.03;;;1.10;;
3369;SDS011;42042;51.948;7.628;2022-08-06T11:03:14;2.67;;;2.43;;
3369;SDS011;42042;51.948;7.628;2022-08-06T11:05:42;3.47;;;3.03;;
3369;SDS011;42042;51.948;7.628;2022-08-06T11:08:16;1.43;;;1.20;;
3369;SDS011;42042;51.948;7.628;2022-08-06T11:10:56;2.80;;;1.60;;
3369;SDS011;42042;51.948;7.628;2022-08-06T11:13:29;1.50;;;1.10;;
3369;SDS011;42042;51.948;7.628;2022-08-06T11:15:56;1.27;;;1.00;;
3369;SDS011;42042;51.948;7.628;2022-08-06T11:18:24;1.20;;;1.00;;
3369;SDS011;42042;51.948;7.628;2022-08-06T11:20:52;2.20;;;1.13;;
3369;SDS011;42042;51.948;7.628;2022-08-06T11:23:23;1.40;;;1.07;;
3369;SDS011;42042;51.948;7.628;2022-08-06T11:25:51;1.73;;;1.17;;
3369;SDS011;42042;51.948;7.628;2022-08-06T11:31:08;1.83;;;1.50;;
3369;SDS011;42042;51.948;7.628;2022-08-06T11:33:58;2.93;;;1.07;;
3369;SDS011;42042;51.948;7.628;2022-08-06T11:36:27;3.73;;;3.43;;
3369;SDS011;42042;51.948;7.628;2022-08-06T11:38:57;3.30;;;1.63;;
3369;SDS011;42042;51.948;7.628;2022-08-06T11:41:26;1.20;;;1.10;;
3369;SDS011;42042;51.948;7.628;2022-08-06T11:44:05;1.57;;;1.10;;
3369;SDS011;42042;51.948;7.628;2022-08-06T11:46:33;1.50;;;1.00;;
3369;SDS011;42042;51.948;7.628;2022-08-06T11:49:17;2.40;;;1.10;;
3369;SDS011;42042;51.948;7.628;2022-08-06T11:51:46;1.87;;;1.20;;
3369;SDS011;42042;51.948;7.628;2022-08-06T11:54:14;1.30;;;1.13;;
3369;SDS011;42042;51.948;7.628;2022-08-06T11:59:31;1.50;;;1.20;;
3369;SDS011;42042;51.948;7.628;2022-08-06T12:01:59;2.20;;;1.10;;
3369;SDS011;42042;51.948;7.628;2022-08-06T12:04:39;2.07;;;1.20;;
3369;SDS011;42042;51.948;7.628;2022-08-06T12:07:13;4.87;;;1.00;;
3369;SDS011;42042;51.948;7.628;2022-08-06T12:09:41;1.43;;;1.20;;
3369;SDS011;42042;51.948;7.628;2022-08-06T12:14:55;2.60;;;1.10;;
3369;SDS011;42042;51.948;7.628;2022-08-06T12:17:23;2.17;;;1.20;;
3369;SDS011;42042;51.948;7.628;2022-08-06T12:19:52;3.13;;;1.20;;
3369;SDS011;42042;51.948;7.628;2022-08-06T12:22:20;1.40;;;1.30;;
3369;SDS011;42042;51.948;7.628;2022-08-06T12:24:48;7.23;;;1.57;;
3369;SDS011;42042;51.948;7.628;2022-08-06T12:27:16;4.67;;;1.20;;
3369;SDS011;42042;51.948;7.628;2022-08-06T12:29:43;2.00;;;1.13;;
3369;SDS011;42042;51.948;7.628;2022-08-06T12:32:21;3.23;;;1.23;;
3369;SDS011;42042;51.948;7.628;2022-08-06T12:34:49;2.30;;;1.20;;
3369;SDS011;42042;51.948;7.628;2022-08-06T12:37:16;3.67;;;1.13;;
3369;SDS011;42042;51.948;7.628;2022-08-06T12:39:44;1.73;;;1.30;;
3369;SDS011;42042;51.948;7.628;2022-08-06T12:42:29;1.30;;;1.20;;
3369;SDS011;42042;51.948;7.628;2022-08-06T12:44:56;1.50;;;1.40;;
3369;SDS011;42042;51.948;7.628;2022-08-06T12:47:25;1.90;;;1.30;;
3369;SDS011;42042;51.948;7.628;2022-08-06T12:49:52;1.27;;;1.17;;
3369;SDS011;42042;51.948;7.628;2022-08-06T12:52:20;1.57;;;1.47;;
3369;SDS011;42042;51.948;7.628;2022-08-06T12:54:47;3.63;;;3.27;;
3369;SDS011;42042;51.948;7.628;2022-08-06T12:57:21;1.13;;;1.03;;
3369;SDS011;42042;51.948;7.628;2022-08-06T12:59:48;4.70;;;1.17;;
3369;SDS011;42042;51.948;7.628;2022-08-06T13:02:16;1.83;;;1.57;;
3369;SDS011;42042;51.948;7.628;2022-08-06T13:04:48;1.27;;;1.17;;
3369;SDS011;42042;51.948;7.628;2022-08-06T13:07:16;2.13;;;1.23;;
3369;SDS011;42042;51.948;7.628;2022-08-06T13:09:45;4.03;;;1.27;;
3369;SDS011;42042;51.948;7.628;2022-08-06T13:12:13;7.70;;;1.70;;
3369;SDS011;42042;51.948;7.628;2022-08-06T13:14:50;1.27;;;1.17;;
3369;SDS011;42042;51.948;7.628;2022-08-06T13:17:18;3.67;;;1.10;;
3369;SDS011;42042;51.948;7.628;2022-08-06T13:19:51;1.93;;;1.20;;
3369;SDS011;42042;51.948;7.628;2022-08-06T13:22:19;1.50;;;1.20;;
3369;SDS011;42042;51.948;7.628;2022-08-06T13:24:46;1.27;;;1.10;;
3369;SDS011;42042;51.948;7.628;2022-08-06T13:27:14;1.30;;;1.20;;
3369;SDS011;42042;51.948;7.628;2022-08-06T13:30:00;4.30;;;1.17;;
3369;SDS011;42042;51.948;7.628;2022-08-06T13:32:28;1.40;;;1.10;;
3369;SDS011;42042;51.948;7.628;2022-08-06T13:34:57;1.20;;;1.10;;
3369;SDS011;42042;51.948;7.628;2022-08-06T13:37:40;1.77;;;1.17;;
3369;SDS011;42042;51.948;7.628;2022-08-06T13:40:08;1.37;;;1.13;;
3369;SDS011;42042;51.948;7.628;2022-08-06T13:42:47;2.53;;;1.30;;
3369;SDS011;42042;51.948;7.628;2022-08-06T13:45:21;2.17;;;1.40;;
3369;SDS011;42042;51.948;7.628;2022-08-06T13:47:49;3.73;;;1.30;;
3369;SDS011;42042;51.948;7.628;2022-08-06T13:50:19;1.27;;;1.07;;
3369;SDS011;42042;51.948;7.628;2022-08-06T13:52:46;2.87;;;1.53;;
3369;SDS011;42042;51.948;7.628;2022-08-06T13:55:21;2.13;;;1.23;;
3369;SDS011;42042;51.948;7.628;2022-08-06T13:57:48;2.07;;;1.67;;
3369;SDS011;42042;51.948;7.628;2022-08-06T14:00:16;4.73;;;1.53;;
3369;SDS011;42042;51.948;7.628;2022-08-06T14:02:43;2.20;;;1.50;;
3369;SDS011;42042;51.948;7.628;2022-08-06T14:05:10;2.30;;;1.20;;
3369;SDS011;42042;51.948;7.628;2022-08-06T14:07:39;1.43;;;1.33;;
3369;SDS011;42042;51.948;7.628;2022-08-06T14:10:07;3.40;;;1.60;;
3369;SDS011;42042;51.948;7.628;2022-08-06T14:12:34;1.80;;;1.30;;
3369;SDS011;42042;51.948;7.628;2022-08-06T14:15:01;2.03;;;1.17;;
3369;SDS011;42042;51.948;7.628;2022-08-06T14:17:29;2.20;;;1.20;;
3369;SDS011;42042;51.948;7.628;2022-08-06T14:19:56;2.50;;;1.40;;
3369;SDS011;42042;51.948;7.628;2022-08-06T14:22:23;1.87;;;1.30;;
3369;SDS011;42042;51.948;7.628;2022-08-06T14:24:52;3.80;;;1.50;;
3369;SDS011;42042;51.948;7.628;2022-08-06T14:27:20;2.47;;;1.23;;
3369;SDS011;42042;51.948;7.628;2022-08-06T14:29:47;1.50;;;1.40;;
3369;SDS011;42042;51.948;7.628;2022-08-06T14:32:14;3.50;;;1.63;;
3369;SDS011;42042;51.948;7.628;2022-08-06T14:34:42;1.93;;;1.50;;
3369;SDS011;42042;51.948;7.628;2022-08-06T14:37:11;2.00;;;1.30;;
3369;SDS011;42042;51.948;7.628;2022-08-06T14:39:38;1.30;;;1.20;;
3369;SDS011;42042;51.948;7.628;2022-08-06T14:42:07;1.00;;;1.00;;
3369;SDS011;42042;51.948;7.628;2022-08-06T14:44:51;1.67;;;1.30;;
3369;SDS011;42042;51.948;7.628;2022-08-06T14:47:22;1.80;;;1.60;;
3369;SDS011;42042;51.948;7.628;2022-08-06T14:49:49;2.20;;;1.13;;
3369;SDS011;42042;51.948;7.628;2022-08-06T14:52:17;1.30;;;1.20;;
3369;SDS011;42042;51.948;7.628;2022-08-06T14:54:44;1.40;;;1.30;;
3369;SDS011;42042;51.948;7.628;2022-08-06T14:57:12;2.33;;;1.77;;
3369;SDS011;42042;51.948;7.628;2022-08-06T14:59:40;4.47;;;4.00;;
3369;SDS011;42042;51.948;7.628;2022-08-06T15:02:07;3.80;;;1.87;;
3369;SDS011;42042;51.948;7.628;2022-08-06T15:04:34;2.40;;;1.90;;
3369;SDS011;42042;51.948;7.628;2022-08-06T15:07:02;2.30;;;1.20;;
3369;SDS011;42042;51.948;7.628;2022-08-06T15:09:29;2.53;;;1.13;;
3369;SDS011;42042;51.948;7.628;2022-08-06T15:11:57;3.07;;;1.50;;
3369;SDS011;42042;51.948;7.628;2022-08-06T15:14:26;2.67;;;2.13;;
3369;SDS011;42042;51.948;7.628;2022-08-06T15:16:53;5.20;;;4.50;;
3369;SDS011;42042;51.948;7.628;2022-08-06T15:19:20;5.43;;;4.53;;
3369;SDS011;42042;51.948;7.628;2022-08-06T15:21:48;1.73;;;1.40;;